createdAt,value
2022-11-12T00:00:40.464Z,100.00
2022-11-12T00:02:01.820Z,100.00
2022-11-12T00:03:23.751Z,100.00
2022-11-12T00:04:45.309Z,100.00
2022-11-12T00:06:06.438Z,100.00
2022-11-12T00:07:27.799Z,100.00
2022-11-12T00:08:49.514Z,100.00
2022-11-12T00:10:11.331Z,100.00
2022-11-12T00:11:32.290Z,100.00
2022-11-12T00:12:53.567Z,100.00
2022-11-12T00:14:14.666Z,100.00
2022-11-12T00:15:36.749Z,100.00
2022-11-12T00:16:58.269Z,100.00
2022-11-12T00:18:19.649Z,100.00
2022-11-12T00:19:41.452Z,100.00
2022-11-12T00:21:02.610Z,100.00
2022-11-12T00:22:23.998Z,100.00
2022-11-12T00:23:45.279Z,100.00
2022-11-12T00:25:06.985Z,100.00
2022-11-12T00:26:27.743Z,100.00
2022-11-12T00:27:49.236Z,100.00
2022-11-12T00:29:10.596Z,100.00
2022-11-12T00:30:31.830Z,100.00
2022-11-12T00:31:53.498Z,100.00
2022-11-12T00:33:14.795Z,100.00
2022-11-12T00:34:36.546Z,100.00
2022-11-12T00:35:59.986Z,100.00
2022-11-12T00:37:23.238Z,100.00
2022-11-12T00:38:44.709Z,100.00
2022-11-12T00:40:06.170Z,100.00
2022-11-12T00:41:27.306Z,100.00
2022-11-12T00:42:52.006Z,100.00
2022-11-12T00:44:13.381Z,100.00
2022-11-12T00:45:35.449Z,100.00
2022-11-12T00:46:57.356Z,100.00
2022-11-12T00:48:18.351Z,100.00
2022-11-12T00:49:39.151Z,100.00
2022-11-12T00:51:05.199Z,100.00
2022-11-12T00:52:26.499Z,100.00
2022-11-12T00:53:51.455Z,100.00
2022-11-12T00:55:12.167Z,100.00
2022-11-12T00:56:35.621Z,100.00
2022-11-12T00:58:00.725Z,100.00
2022-11-12T00:59:22.077Z,100.00
2022-11-12T01:00:43.246Z,100.00
2022-11-12T01:02:04.439Z,100.00
2022-11-12T01:03:28.029Z,100.00
2022-11-12T01:04:49.345Z,100.00
2022-11-12T01:06:16.406Z,100.00
2022-11-12T01:07:37.267Z,100.00
2022-11-12T01:08:58.857Z,100.00
2022-11-12T01:10:20.393Z,100.00
2022-11-12T01:11:42.428Z,100.00
2022-11-12T01:13:08.512Z,100.00
2022-11-12T01:14:29.678Z,100.00
2022-11-12T01:15:50.842Z,100.00
2022-11-12T01:17:12.284Z,100.00
2022-11-12T01:18:34.629Z,100.00
2022-11-12T01:19:55.645Z,100.00
2022-11-12T01:21:16.918Z,100.00
2022-11-12T01:22:37.874Z,100.00
2022-11-12T01:24:00.885Z,100.00
2022-11-12T01:25:22.463Z,100.00
2022-11-12T01:26:44.082Z,100.00
2022-11-12T01:28:06.363Z,100.00
2022-11-12T01:29:27.202Z,100.00
2022-11-12T01:30:47.996Z,100.00
2022-11-12T01:32:09.423Z,100.00
2022-11-12T01:33:30.584Z,100.00
2022-11-12T01:34:52.138Z,100.00
2022-11-12T01:36:14.975Z,100.00
2022-11-12T01:37:36.297Z,100.00
2022-11-12T01:38:57.454Z,100.00
2022-11-12T01:40:18.784Z,100.00
2022-11-12T01:41:41.968Z,100.00
2022-11-12T01:43:04.165Z,100.00
2022-11-12T01:44:30.220Z,100.00
2022-11-12T01:45:52.269Z,100.00
2022-11-12T01:47:19.962Z,100.00
2022-11-12T01:49:03.080Z,100.00
2022-11-12T01:50:33.942Z,100.00
2022-11-12T01:51:58.131Z,100.00
2022-11-12T01:53:21.292Z,100.00
2022-11-12T01:54:46.925Z,100.00
2022-11-12T01:56:08.212Z,100.00
2022-11-12T01:57:41.690Z,100.00
2022-11-12T01:59:07.034Z,100.00
2022-11-12T02:00:28.393Z,100.00
2022-11-12T02:01:49.696Z,100.00
2022-11-12T02:03:18.857Z,100.00
2022-11-12T02:04:42.258Z,100.00
2022-11-12T02:06:11.503Z,100.00
2022-11-12T02:07:33.434Z,100.00
2022-11-12T02:08:55.678Z,100.00
2022-11-12T02:10:16.809Z,100.00
2022-11-12T02:11:37.601Z,100.00
2022-11-12T02:13:17.507Z,100.00
2022-11-12T02:14:38.624Z,100.00
2022-11-12T02:15:59.958Z,100.00
2022-11-12T02:17:21.958Z,100.00
2022-11-12T02:18:43.513Z,100.00
2022-11-12T02:20:08.625Z,100.00
2022-11-12T02:21:30.073Z,100.00
2022-11-12T02:22:51.130Z,100.00
2022-11-12T02:24:12.401Z,100.00
2022-11-12T02:25:34.886Z,100.00
2022-11-12T02:26:56.819Z,100.00
2022-11-12T02:28:18.123Z,100.00
2022-11-12T02:29:46.470Z,100.00
2022-11-12T02:31:08.074Z,100.00
2022-11-12T02:32:28.735Z,100.00
2022-11-12T02:33:49.683Z,100.00
2022-11-12T02:35:10.796Z,100.00
2022-11-12T02:36:31.934Z,100.00
2022-11-12T02:37:53.022Z,100.00
2022-11-12T02:39:14.094Z,100.00
2022-11-12T02:40:35.221Z,100.00
2022-11-12T02:42:00.320Z,100.00
2022-11-12T02:43:21.407Z,100.00
2022-11-12T02:44:42.441Z,100.00
2022-11-12T02:46:03.610Z,100.00
2022-11-12T02:47:24.978Z,100.00
2022-11-12T02:48:46.936Z,100.00
2022-11-12T02:50:08.661Z,100.00
2022-11-12T02:51:29.444Z,100.00
2022-11-12T02:52:50.282Z,100.00
2022-11-12T02:54:11.198Z,100.00
2022-11-12T02:55:31.990Z,100.00
2022-11-12T02:56:53.009Z,100.00
2022-11-12T02:58:14.433Z,100.00
2022-11-12T02:59:35.531Z,100.00
2022-11-12T03:00:57.390Z,100.00
2022-11-12T03:02:18.860Z,100.00
2022-11-12T03:03:39.677Z,100.00
2022-11-12T03:05:00.398Z,100.00
2022-11-12T03:06:21.235Z,100.00
2022-11-12T03:07:42.936Z,100.00
2022-11-12T03:09:03.962Z,100.00
2022-11-12T03:10:29.030Z,100.00
2022-11-12T03:11:49.896Z,100.00
2022-11-12T03:13:11.827Z,100.00
2022-11-12T03:14:33.010Z,100.00
2022-11-12T03:16:00.698Z,100.00
2022-11-12T03:17:21.693Z,100.00
2022-11-12T03:18:42.859Z,100.00
2022-11-12T03:20:04.015Z,100.00
2022-11-12T03:21:25.031Z,100.00
2022-11-12T03:23:01.610Z,100.00
2022-11-12T03:24:22.683Z,100.00
2022-11-12T03:25:43.994Z,100.00
2022-11-12T03:27:05.226Z,100.00
2022-11-12T03:28:26.391Z,100.00
2022-11-12T03:29:47.875Z,100.00
2022-11-12T03:31:09.102Z,100.00
2022-11-12T03:32:30.334Z,100.00
2022-11-12T03:33:51.711Z,100.00
2022-11-12T03:35:12.520Z,100.00
2022-11-12T03:36:33.686Z,100.00
2022-11-12T03:37:55.338Z,100.00
2022-11-12T03:39:16.659Z,100.00
2022-11-12T03:40:38.118Z,100.00
2022-11-12T03:41:59.490Z,100.00
2022-11-12T03:43:21.152Z,100.00
2022-11-12T03:44:42.287Z,100.00
2022-11-12T03:46:03.202Z,100.00
2022-11-12T03:47:24.385Z,100.00
2022-11-12T03:48:45.591Z,100.00
2022-11-12T03:50:07.207Z,100.00
2022-11-12T03:51:28.437Z,100.00
2022-11-12T03:52:53.090Z,100.00
2022-11-12T03:54:14.315Z,100.00
2022-11-12T03:55:35.751Z,100.00
2022-11-12T03:56:56.671Z,100.00
2022-11-12T03:58:19.470Z,100.00
2022-11-12T03:59:40.609Z,100.00
2022-11-12T04:01:01.495Z,100.00
2022-11-12T04:02:23.066Z,100.00
2022-11-12T04:03:44.217Z,100.00
2022-11-12T04:05:24.782Z,100.00
2022-11-12T04:07:04.688Z,100.00
2022-11-12T04:08:39.065Z,100.00
2022-11-12T04:10:00.289Z,100.00
2022-11-12T04:11:21.198Z,100.00
2022-11-12T04:13:00.509Z,100.00
2022-11-12T04:14:21.481Z,100.00
2022-11-12T04:15:42.296Z,100.00
2022-11-12T04:17:21.730Z,100.00
2022-11-12T04:19:01.454Z,100.00
2022-11-12T04:20:44.098Z,100.00
2022-11-12T04:22:10.385Z,100.00
2022-11-12T04:23:31.390Z,100.00
2022-11-12T04:25:11.459Z,100.00
2022-11-12T04:26:32.678Z,100.00
2022-11-12T04:27:53.530Z,100.00
2022-11-12T04:29:37.384Z,100.00
2022-11-12T04:30:59.242Z,100.00
2022-11-12T04:32:21.230Z,100.00
2022-11-12T04:33:42.040Z,100.00
2022-11-12T04:35:05.783Z,100.00
2022-11-12T04:36:27.268Z,100.00
2022-11-12T04:37:49.136Z,100.00
2022-11-12T04:39:10.139Z,100.00
2022-11-12T04:40:50.828Z,100.00
2022-11-12T04:42:50.967Z,100.00
2022-11-12T04:44:33.423Z,100.00
2022-11-12T04:45:55.333Z,100.00
2022-11-12T04:47:16.508Z,100.00
2022-11-12T04:48:38.430Z,100.00
2022-11-12T04:50:00.952Z,100.00
2022-11-12T04:51:41.149Z,100.00
2022-11-12T04:53:02.200Z,100.00
2022-11-12T04:54:23.669Z,100.00
2022-11-12T04:55:44.842Z,100.00
2022-11-12T04:57:07.334Z,100.00
2022-11-12T04:58:29.123Z,100.00
2022-11-12T04:59:50.852Z,100.00
2022-11-12T05:01:14.303Z,100.00
2022-11-12T05:02:36.038Z,100.00
2022-11-12T05:03:56.774Z,100.00
2022-11-12T05:05:18.052Z,100.00
2022-11-12T05:06:51.421Z,100.00
2022-11-12T05:08:12.708Z,100.00
2022-11-12T05:09:34.459Z,100.00
2022-11-12T05:10:55.932Z,100.00
2022-11-12T05:12:17.010Z,100.00
2022-11-12T05:13:38.457Z,100.00
2022-11-12T05:14:59.234Z,100.00
2022-11-12T05:16:20.419Z,100.00
2022-11-12T05:17:45.387Z,100.00
2022-11-12T05:19:06.708Z,100.00
2022-11-12T05:20:27.492Z,100.00
2022-11-12T05:22:08.816Z,100.00
2022-11-12T05:23:32.345Z,100.00
2022-11-12T05:24:53.404Z,100.00
2022-11-12T05:26:14.848Z,100.00
2022-11-12T05:27:36.086Z,100.00
2022-11-12T05:28:57.361Z,100.00
2022-11-12T05:30:18.489Z,100.00
2022-11-12T05:31:39.724Z,100.00
2022-11-12T05:33:01.198Z,100.00
2022-11-12T05:34:23.167Z,100.00
2022-11-12T05:35:44.662Z,100.00
2022-11-12T05:37:07.475Z,100.00
2022-11-12T05:38:29.052Z,100.00
2022-11-12T05:39:50.732Z,100.00
2022-11-12T05:41:13.843Z,100.00
2022-11-12T05:42:38.378Z,100.00
2022-11-12T05:43:59.558Z,100.00
2022-11-12T05:45:20.447Z,100.00
2022-11-12T05:46:41.687Z,100.00
2022-11-12T05:48:02.388Z,100.00
2022-11-12T05:49:23.614Z,100.00
2022-11-12T05:51:06.624Z,100.00
2022-11-12T05:52:26.001Z,100.00
2022-11-12T05:53:46.993Z,100.00
2022-11-12T05:55:08.330Z,100.00
2022-11-12T05:56:29.282Z,100.00
2022-11-12T05:57:50.464Z,100.00
2022-11-12T05:59:13.181Z,100.00
2022-11-12T06:00:39.077Z,100.00
2022-11-12T06:02:00.133Z,100.00
2022-11-12T06:03:21.271Z,100.00
2022-11-12T06:04:42.035Z,100.00
2022-11-12T06:06:03.210Z,100.00
2022-11-12T06:07:24.541Z,100.00
2022-11-12T06:08:45.939Z,100.00
2022-11-12T06:10:07.310Z,100.00
2022-11-12T06:11:28.319Z,100.00
2022-11-12T06:12:49.249Z,100.00
2022-11-12T06:14:10.901Z,100.00
2022-11-12T06:15:38.029Z,100.00
2022-11-12T06:17:00.334Z,100.00
2022-11-12T06:18:22.469Z,100.00
2022-11-12T06:19:43.465Z,100.00
2022-11-12T06:21:24.173Z,100.00
2022-11-12T06:22:45.070Z,100.00
2022-11-12T06:24:06.273Z,100.00
2022-11-12T06:25:27.788Z,100.00
2022-11-12T06:26:48.491Z,100.00
2022-11-12T06:28:09.923Z,100.00
2022-11-12T06:29:31.273Z,100.00
2022-11-12T06:30:52.192Z,100.00
2022-11-12T06:32:13.521Z,100.00
2022-11-12T06:33:34.848Z,100.00
2022-11-12T06:34:55.854Z,100.00
2022-11-12T06:36:19.401Z,100.00
2022-11-12T06:37:40.299Z,100.00
2022-11-12T06:39:01.767Z,100.00
2022-11-12T06:40:23.071Z,100.00
2022-11-12T06:41:44.466Z,100.00
2022-11-12T06:43:05.936Z,100.00
2022-11-12T06:44:26.998Z,100.00
2022-11-12T06:45:47.950Z,100.00
2022-11-12T06:47:10.011Z,100.00
2022-11-12T06:48:31.699Z,100.00
2022-11-12T06:49:52.542Z,100.00
2022-11-12T06:51:20.581Z,100.00
2022-11-12T06:52:41.858Z,100.00
2022-11-12T06:54:03.467Z,100.00
2022-11-12T06:55:24.567Z,100.00
2022-11-12T06:56:45.855Z,100.00
2022-11-12T06:58:06.758Z,100.00
2022-11-12T06:59:27.786Z,100.00
2022-11-12T07:00:48.995Z,100.00
2022-11-12T07:02:12.548Z,100.00
2022-11-12T07:03:34.229Z,100.00
2022-11-12T07:04:55.761Z,100.00
2022-11-12T07:06:20.252Z,100.00
2022-11-12T07:07:41.541Z,100.00
2022-11-12T07:09:04.457Z,100.00
2022-11-12T07:10:25.831Z,100.00
2022-11-12T07:11:47.751Z,100.00
2022-11-12T07:13:08.770Z,100.00
2022-11-12T07:14:29.459Z,100.00
2022-11-12T07:15:50.847Z,100.00
2022-11-12T07:17:12.491Z,100.00
2022-11-12T07:18:35.568Z,100.00
2022-11-12T07:20:02.317Z,100.00
2022-11-12T07:21:25.875Z,100.00
2022-11-12T07:22:47.112Z,100.00
2022-11-12T07:24:09.161Z,100.00
2022-11-12T07:25:30.056Z,100.00
2022-11-12T07:26:51.495Z,100.00
2022-11-12T07:28:13.074Z,100.00
2022-11-12T07:29:46.810Z,100.00
2022-11-12T07:31:14.510Z,100.00
2022-11-12T07:32:41.951Z,100.00
2022-11-12T07:34:05.722Z,100.00
2022-11-12T07:35:26.704Z,100.00
2022-11-12T07:36:51.500Z,100.00
2022-11-12T07:38:12.403Z,100.00
2022-11-12T07:39:34.159Z,100.00
2022-11-12T07:41:03.482Z,100.00
2022-11-12T07:42:24.402Z,100.00
2022-11-12T07:43:48.415Z,100.00
2022-11-12T07:45:09.595Z,100.00
2022-11-12T07:46:30.726Z,100.00
2022-11-12T07:47:52.307Z,100.00
2022-11-12T07:49:13.486Z,100.00
2022-11-12T07:50:34.653Z,100.00
2022-11-12T07:51:55.974Z,100.00
2022-11-12T07:53:17.356Z,100.00
2022-11-12T07:54:38.217Z,100.00
2022-11-12T07:56:02.090Z,100.00
2022-11-12T07:57:23.242Z,100.00
2022-11-12T07:58:46.953Z,100.00
2022-11-12T08:00:09.689Z,100.00
2022-11-12T08:01:39.879Z,100.00
2022-11-12T08:03:02.550Z,100.00
2022-11-12T08:04:23.988Z,100.00
2022-11-12T08:05:45.353Z,100.00
2022-11-12T08:07:09.967Z,100.00
2022-11-12T08:08:31.483Z,100.00
2022-11-12T08:09:52.321Z,100.00
2022-11-12T08:11:13.393Z,100.00
2022-11-12T08:12:34.383Z,100.00
2022-11-12T08:13:55.839Z,100.00
2022-11-12T08:15:17.395Z,100.00
2022-11-12T08:16:38.706Z,100.00
2022-11-12T08:18:00.333Z,100.00
2022-11-12T08:19:21.325Z,100.00
2022-11-12T08:20:42.721Z,100.00
2022-11-12T08:22:04.270Z,100.00
2022-11-12T08:23:25.113Z,100.00
2022-11-12T08:24:45.942Z,100.00
2022-11-12T08:26:09.471Z,100.00
2022-11-12T08:27:30.706Z,100.00
2022-11-12T08:28:52.112Z,100.00
2022-11-12T08:30:14.035Z,100.00
2022-11-12T08:31:35.658Z,100.00
2022-11-12T08:33:05.262Z,100.00
2022-11-12T08:34:26.341Z,100.00
2022-11-12T08:35:47.292Z,100.00
2022-11-12T08:37:08.963Z,100.00
2022-11-12T08:38:30.671Z,100.00
2022-11-12T08:39:52.253Z,100.00
2022-11-12T08:41:15.017Z,100.00
2022-11-12T08:42:36.351Z,100.00
2022-11-12T08:43:58.216Z,100.00
2022-11-12T08:45:19.206Z,100.00
2022-11-12T08:46:40.097Z,100.00
2022-11-12T08:48:07.791Z,100.00
2022-11-12T08:49:29.333Z,100.00
2022-11-12T08:50:50.675Z,100.00
2022-11-12T08:52:12.286Z,100.00
2022-11-12T08:53:33.726Z,100.00
2022-11-12T08:54:55.490Z,100.00
2022-11-12T08:56:16.718Z,100.00
2022-11-12T08:57:44.581Z,100.00
2022-11-12T08:59:07.467Z,100.00
2022-11-12T09:00:30.934Z,100.00
2022-11-12T09:01:52.085Z,100.00
2022-11-12T09:03:16.531Z,100.00
2022-11-12T09:04:37.489Z,100.00
2022-11-12T09:06:03.267Z,100.00
2022-11-12T09:09:05.957Z,100.00
2022-11-12T09:10:28.746Z,100.00
2022-11-12T09:11:50.510Z,100.00
2022-11-12T09:13:11.318Z,100.00
2022-11-12T09:14:32.395Z,100.00
2022-11-12T09:15:53.344Z,100.00
2022-11-12T09:17:15.055Z,100.00
2022-11-12T09:18:37.158Z,100.00
2022-11-12T09:19:58.586Z,100.00
2022-11-12T09:21:24.634Z,100.00
2022-11-12T09:22:46.144Z,100.00
2022-11-12T09:24:07.371Z,100.00
2022-11-12T09:25:29.535Z,100.00
2022-11-12T09:26:55.074Z,100.00
2022-11-12T09:28:18.098Z,100.00
2022-11-12T09:29:38.951Z,100.00
2022-11-12T09:31:00.477Z,100.00
2022-11-12T09:32:21.418Z,100.00
2022-11-12T09:33:42.575Z,100.00
2022-11-12T09:35:03.891Z,100.00
2022-11-12T09:36:25.422Z,100.00
2022-11-12T09:37:46.835Z,100.00
2022-11-12T09:39:08.358Z,100.00
2022-11-12T09:40:50.944Z,100.00
2022-11-12T09:42:19.293Z,100.00
2022-11-12T09:43:46.705Z,100.00
2022-11-12T09:45:19.251Z,100.00
2022-11-12T09:47:02.788Z,100.00
2022-11-12T09:48:29.511Z,100.00
2022-11-12T09:50:01.646Z,100.00
2022-11-12T09:51:34.400Z,100.00
2022-11-12T09:53:07.788Z,100.00
2022-11-12T09:54:32.833Z,100.00
2022-11-12T09:55:54.181Z,100.00
2022-11-12T09:57:15.290Z,100.00
2022-11-12T09:58:37.536Z,100.00
2022-11-12T09:59:58.896Z,100.00
2022-11-12T10:01:38.968Z,100.00
2022-11-12T10:03:06.874Z,100.00
2022-11-12T10:04:55.666Z,100.00
2022-11-12T10:06:21.825Z,100.00
2022-11-12T10:07:54.987Z,100.00
2022-11-12T10:09:30.640Z,100.00
2022-11-12T10:11:11.240Z,100.00
2022-11-12T10:12:32.568Z,100.00
2022-11-12T10:14:24.678Z,100.00
2022-11-12T10:16:28.784Z,100.00
2022-11-12T10:18:26.061Z,100.00
2022-11-12T10:19:53.719Z,100.00
2022-11-12T10:21:30.103Z,100.00
2022-11-12T10:23:36.751Z,100.00
2022-11-12T10:25:10.454Z,100.00
2022-11-12T10:26:34.026Z,100.00
2022-11-12T10:27:56.342Z,100.00
2022-11-12T10:29:33.188Z,100.00
2022-11-12T10:31:05.413Z,100.00
2022-11-12T10:32:26.453Z,100.00
2022-11-12T10:33:48.201Z,100.00
2022-11-12T10:35:10.863Z,100.00
2022-11-12T10:36:36.447Z,100.00
2022-11-12T10:38:02.641Z,100.00
2022-11-12T10:39:37.008Z,100.00
2022-11-12T10:40:58.572Z,100.00
2022-11-12T10:42:22.376Z,100.00
2022-11-12T10:44:00.756Z,100.00
2022-11-12T10:45:23.405Z,100.00
2022-11-12T10:46:44.905Z,100.00
2022-11-12T10:48:29.013Z,100.00
2022-11-12T10:50:27.757Z,98.57
2022-11-12T10:51:57.313Z,98.60
2022-11-12T10:53:32.973Z,97.92
2022-11-12T10:55:15.851Z,95.58
2022-11-12T10:56:36.789Z,93.74
2022-11-12T10:58:13.852Z,94.00
2022-11-12T10:59:35.044Z,94.18
2022-11-12T11:01:05.211Z,94.45
2022-11-12T11:02:26.560Z,95.14
2022-11-12T11:03:55.277Z,95.48
2022-11-12T11:05:35.751Z,95.08
2022-11-12T11:07:06.310Z,95.34
2022-11-12T11:08:54.754Z,95.10
2022-11-12T11:10:23.886Z,95.00
2022-11-12T11:11:54.106Z,95.22
2022-11-12T11:13:21.466Z,94.83
2022-11-12T11:14:44.681Z,93.99
2022-11-12T11:16:07.670Z,94.09
2022-11-12T11:17:29.339Z,92.35
2022-11-12T11:18:56.998Z,90.40
2022-11-12T11:20:25.848Z,88.33
2022-11-12T11:22:00.824Z,87.50
2022-11-12T11:23:28.903Z,86.20
2022-11-12T11:25:20.777Z,82.77
2022-11-12T11:27:01.171Z,81.05
2022-11-12T11:28:36.353Z,78.78
2022-11-12T11:30:04.401Z,78.08
2022-11-12T11:31:37.229Z,76.32
2022-11-12T11:33:01.140Z,75.59
2022-11-12T11:34:42.478Z,73.78
2022-11-12T11:36:19.011Z,72.46
2022-11-12T11:37:58.290Z,71.86
2022-11-12T11:39:35.423Z,69.87
2022-11-12T11:41:06.828Z,69.93
2022-11-12T11:42:30.839Z,71.10
2022-11-12T11:44:15.182Z,70.04
2022-11-12T11:45:48.137Z,69.43
2022-11-12T11:47:38.576Z,70.14
2022-11-12T11:49:28.720Z,69.98
2022-11-12T11:51:11.307Z,69.43
2022-11-12T11:52:44.597Z,67.67
2022-11-12T11:54:28.527Z,68.95
2022-11-12T11:55:54.573Z,69.08
2022-11-12T11:57:22.765Z,68.11
2022-11-12T11:58:59.400Z,70.04
2022-11-12T12:00:23.824Z,72.28
2022-11-12T12:02:15.809Z,70.56
2022-11-12T12:03:46.523Z,70.65
2022-11-12T12:05:32.877Z,72.83
2022-11-12T12:07:14.385Z,72.78
2022-11-12T12:08:43.280Z,73.72
2022-11-12T12:10:20.091Z,72.43
2022-11-12T12:12:30.458Z,72.17
2022-11-12T12:13:59.506Z,70.45
2022-11-12T12:22:55.366Z,72.26
2022-11-12T12:24:46.039Z,72.84
2022-11-12T12:26:14.670Z,73.15
2022-11-12T12:27:43.333Z,71.81
2022-11-12T12:29:07.823Z,72.09
2022-11-12T12:30:32.153Z,72.29
2022-11-12T12:32:05.745Z,71.90
2022-11-12T12:33:52.585Z,72.03
2022-11-12T12:35:20.696Z,73.25
2022-11-12T12:36:43.900Z,72.04
2022-11-12T12:38:13.917Z,72.08
2022-11-12T12:39:53.700Z,73.08
2022-11-12T12:41:17.120Z,72.53
2022-11-12T12:42:46.695Z,72.48
2022-11-12T12:44:10.578Z,72.43
2022-11-12T12:45:37.750Z,72.30
2022-11-12T12:47:01.200Z,72.42
2022-11-12T12:48:31.240Z,72.85
2022-11-12T12:49:53.747Z,72.54
2022-11-12T12:51:14.943Z,73.22
2022-11-12T12:53:13.916Z,73.00
2022-11-12T12:54:34.875Z,73.31
2022-11-12T12:55:58.304Z,73.57
2022-11-12T12:57:46.319Z,74.80
2022-11-12T12:59:19.667Z,74.13
2022-11-12T13:00:41.833Z,73.71
2022-11-12T13:02:03.843Z,72.69
2022-11-12T13:03:42.968Z,72.58
2022-11-12T13:05:05.250Z,72.62
2022-11-12T13:06:31.097Z,72.92
2022-11-12T13:07:53.157Z,72.87
2022-11-12T13:09:14.865Z,73.14
2022-11-12T13:10:39.352Z,73.67
2022-11-12T13:12:06.750Z,74.18
2022-11-12T13:13:35.569Z,73.43
2022-11-12T13:15:12.723Z,73.46
2022-11-12T13:16:53.948Z,73.05
2022-11-12T13:18:37.896Z,73.78
2022-11-12T13:19:59.304Z,73.79
2022-11-12T13:21:21.642Z,73.57
2022-11-12T13:22:42.637Z,73.74
2022-11-12T13:24:07.036Z,73.60
2022-11-12T13:25:31.969Z,73.93
2022-11-12T13:26:58.390Z,75.23
2022-11-12T13:28:21.198Z,74.10
2022-11-12T13:29:44.279Z,74.01
2022-11-12T13:31:28.601Z,75.10
2022-11-12T13:32:52.283Z,74.54
2022-11-12T13:34:30.946Z,74.65
2022-11-12T13:35:51.782Z,75.69
2022-11-12T13:37:20.322Z,75.89
2022-11-12T13:38:42.465Z,75.86
2022-11-12T13:40:05.136Z,75.60
2022-11-12T13:41:46.309Z,76.40
2022-11-12T13:43:16.386Z,77.73
2022-11-12T13:44:37.748Z,79.24
2022-11-12T13:46:12.015Z,79.46
2022-11-12T13:47:33.383Z,80.14
2022-11-12T13:49:08.817Z,80.20
2022-11-12T13:50:33.300Z,80.19
2022-11-12T13:51:58.067Z,80.55
2022-11-12T13:53:26.506Z,81.33
2022-11-12T13:55:01.043Z,81.43
2022-11-12T13:56:30.960Z,82.50
2022-11-12T13:57:54.473Z,83.20
2022-11-12T13:59:18.752Z,83.84
2022-11-12T14:00:40.413Z,84.81
2022-11-12T14:02:05.471Z,85.21
2022-11-12T14:03:31.095Z,86.25
2022-11-12T14:04:53.197Z,86.81
2022-11-12T14:06:16.363Z,87.14
2022-11-12T14:07:49.341Z,87.68
2022-11-12T14:09:38.956Z,88.25
2022-11-12T14:11:00.037Z,89.08
2022-11-12T14:13:06.453Z,89.87
2022-11-12T14:14:42.882Z,90.13
2022-11-12T14:16:48.736Z,90.40
2022-11-12T14:18:39.639Z,90.72
2022-11-12T14:20:12.833Z,91.49
2022-11-12T14:21:34.342Z,91.48
2022-11-12T14:22:55.624Z,92.11
2022-11-12T14:24:16.826Z,92.50
2022-11-12T14:25:48.250Z,92.81
2022-11-12T14:27:40.018Z,92.65
2022-11-12T14:29:03.187Z,92.52
2022-11-12T14:30:28.322Z,92.92
2022-11-12T14:32:02.059Z,93.21
2022-11-12T14:33:26.775Z,93.79
2022-11-12T14:34:47.635Z,94.26
2022-11-12T14:36:14.848Z,94.61
2022-11-12T14:37:43.006Z,94.94
2022-11-12T14:39:07.483Z,95.98
2022-11-12T14:40:32.103Z,96.56
2022-11-12T14:41:55.422Z,97.13
2022-11-12T14:43:26.305Z,97.54
2022-11-12T14:44:49.093Z,97.69
2022-11-12T14:46:21.724Z,98.84
2022-11-12T14:47:44.409Z,99.02
2022-11-12T14:49:44.335Z,98.85
2022-11-12T14:51:11.820Z,100.00
2022-11-12T14:52:40.778Z,100.00
2022-11-12T14:54:10.547Z,100.00
2022-11-12T14:55:35.897Z,100.00
2022-11-12T14:57:00.168Z,100.00
2022-11-12T14:58:23.236Z,100.00
2022-11-12T14:59:44.368Z,100.00
2022-11-12T15:02:13.933Z,100.00
2022-11-12T15:03:12.151Z,100.00
2022-11-12T15:04:39.282Z,100.00
2022-11-12T15:06:10.394Z,100.00
2022-11-12T15:07:50.447Z,100.00
2022-11-12T15:09:11.270Z,100.00
2022-11-12T15:10:42.011Z,100.00
2022-11-12T15:12:19.449Z,100.00
2022-11-12T15:13:42.644Z,100.00
2022-11-12T15:15:09.876Z,100.00
2022-11-12T15:16:36.248Z,100.00
2022-11-12T15:18:07.904Z,100.00
2022-11-12T15:19:29.923Z,100.00
2022-11-12T15:21:26.886Z,100.00
2022-11-12T15:22:52.598Z,100.00
2022-11-12T15:24:27.464Z,100.00
2022-11-12T15:26:01.619Z,100.00
2022-11-12T15:27:37.257Z,100.00
2022-11-12T15:29:10.908Z,100.00
2022-11-12T15:30:33.295Z,100.00
2022-11-12T15:32:17.913Z,100.00
2022-11-12T15:33:38.907Z,100.00
2022-11-12T15:35:01.817Z,100.00
2022-11-12T15:36:24.557Z,100.00
2022-11-12T15:37:45.483Z,100.00
2022-11-12T15:39:13.728Z,100.00
2022-11-12T15:40:45.746Z,100.00
2022-11-12T15:42:25.367Z,100.00
2022-11-12T15:43:46.239Z,100.00
2022-11-12T15:45:25.643Z,100.00
2022-11-12T15:46:47.395Z,100.00
2022-11-12T15:48:12.646Z,100.00
2022-11-12T15:49:36.081Z,100.00
2022-11-12T15:50:58.252Z,100.00
2022-11-12T15:52:19.935Z,100.00
2022-11-12T15:53:50.129Z,100.00
2022-11-12T15:55:13.122Z,100.00
2022-11-12T15:56:34.482Z,100.00
2022-11-12T15:57:55.855Z,100.00
2022-11-12T15:59:18.394Z,100.00
2022-11-12T16:00:40.318Z,100.00
2022-11-12T16:02:03.981Z,100.00
2022-11-12T16:03:26.635Z,100.00
2022-11-12T16:04:48.296Z,100.00
2022-11-12T16:06:12.207Z,100.00
2022-11-12T16:07:33.383Z,100.00
2022-11-12T16:08:54.453Z,100.00
2022-11-12T16:10:18.683Z,100.00
2022-11-12T16:11:39.848Z,100.00
2022-11-12T16:13:02.775Z,100.00
2022-11-12T16:14:25.133Z,100.00
2022-11-12T16:15:46.508Z,100.00
2022-11-12T16:17:14.760Z,100.00
2022-11-12T16:18:36.394Z,100.00
2022-11-12T16:19:57.726Z,100.00
2022-11-12T16:21:21.013Z,100.00
2022-11-12T16:22:42.467Z,100.00
2022-11-12T16:24:03.618Z,100.00
2022-11-12T16:25:29.458Z,100.00
2022-11-12T16:26:50.349Z,100.00
2022-11-12T16:28:20.161Z,100.00
2022-11-12T16:29:41.879Z,100.00
2022-11-12T16:31:03.038Z,100.00
2022-11-12T16:32:24.435Z,100.00
2022-11-12T16:33:45.544Z,100.00
2022-11-12T16:35:07.327Z,100.00
2022-11-12T16:36:29.531Z,100.00
2022-11-12T16:37:53.912Z,100.00
2022-11-12T16:39:15.503Z,100.00
2022-11-12T16:40:36.902Z,100.00
2022-11-12T16:41:58.313Z,100.00
2022-11-12T16:43:19.751Z,100.00
2022-11-12T16:44:41.468Z,100.00
2022-11-12T16:46:14.200Z,100.00
2022-11-12T16:47:35.709Z,100.00
2022-11-12T16:48:57.214Z,100.00
2022-11-12T16:50:22.144Z,100.00
2022-11-12T16:51:43.605Z,100.00
2022-11-12T16:53:04.547Z,100.00
2022-11-12T16:54:25.431Z,100.00
2022-11-12T16:55:46.593Z,100.00
2022-11-12T16:57:10.888Z,100.00
2022-11-12T16:58:32.403Z,100.00
2022-11-12T16:59:53.421Z,100.00
2022-11-12T17:01:26.764Z,100.00
2022-11-12T17:02:53.028Z,100.00
2022-11-12T17:04:15.383Z,100.00
2022-11-12T17:05:37.159Z,100.00
2022-11-12T17:06:58.609Z,100.00
2022-11-12T17:08:20.187Z,100.00
2022-11-12T17:09:41.070Z,100.00
2022-11-12T17:11:07.237Z,100.00
2022-11-12T17:12:28.090Z,100.00
2022-11-12T17:13:49.702Z,100.00
2022-11-12T17:15:10.459Z,100.00
2022-11-12T17:16:31.866Z,100.00
2022-11-12T17:17:54.700Z,100.00
2022-11-12T17:19:15.987Z,100.00
2022-11-12T17:20:37.307Z,100.00
2022-11-12T17:21:58.338Z,100.00
2022-11-12T17:23:19.877Z,100.00
2022-11-12T17:24:40.940Z,100.00
2022-11-12T17:26:05.412Z,100.00
2022-11-12T17:27:27.538Z,100.00
2022-11-12T17:28:59.140Z,100.00
2022-11-12T17:30:23.249Z,100.00
2022-11-12T17:31:49.322Z,100.00
2022-11-12T17:33:10.927Z,100.00
2022-11-12T17:34:32.378Z,100.00
2022-11-12T17:35:53.713Z,100.00
2022-11-12T17:37:15.384Z,100.00
2022-11-12T17:38:38.300Z,100.00
2022-11-12T17:39:59.844Z,100.00
2022-11-12T17:41:23.572Z,100.00
2022-11-12T17:42:45.155Z,100.00
2022-11-12T17:44:07.908Z,100.00
2022-11-12T17:45:29.741Z,100.00
2022-11-12T17:46:51.349Z,100.00
2022-11-12T17:48:12.679Z,100.00
2022-11-12T17:49:33.899Z,100.00
2022-11-12T17:51:06.277Z,100.00
2022-11-12T17:52:27.321Z,100.00
2022-11-12T17:53:49.829Z,100.00
2022-11-12T17:55:11.595Z,100.00
2022-11-12T17:56:36.968Z,100.00
2022-11-12T17:57:59.190Z,100.00
2022-11-12T17:59:20.679Z,100.00
2022-11-12T18:00:42.534Z,100.00
2022-11-12T18:02:03.815Z,100.00
2022-11-12T18:03:25.238Z,100.00
2022-11-12T18:04:47.439Z,100.00